Time,TemperatureF,DewpointF,PressureIn,WindDirection,WindDirectionDegrees,WindSpeedMPH,WindSpeedGustMPH,Humidity,HourlyPrecipIn,Conditions,Clouds,dailyrainin,SoftwareType,DateUTC
2013-02-10 00:00:00,27.7,20.2,30.35,SSW,195,0.0,0.0,73,0.00,CLR,,0.00,WeatherDisplay:10.37,2013-02-10 05:00:00,
2013-02-10 00:01:00,27.7,20.2,30.35,SSW,196,0.0,0.0,73,0.00,CLR,,0.00,WeatherDisplay:10.37,2013-02-10 05:01:00,
2013-02-10 00:02:00,27.8,20.3,30.35,SSW,195,0.0,0.0,73,0.00,CLR,,0.00,WeatherDisplay:10.37,2013-02-10 05:02:00,
2013-02-10 00:07:00,27.9,19.7,30.35,South,187,0.0,0.0,71,0.00,CLR,,0.00,WeatherDisplay:10.37,2013-02-10 05:07:00,
2013-02-10 00:12:00,28.3,20.1,30.36,South,187,0.0,0.0,71,0.00,CLR,,0.00,WeatherDisplay:10.37,2013-02-10 05:12:00,
2013-02-10 00:17:00,28.4,19.9,30.36,South,187,0.0,0.0,70,0.00,CLR,,0.00,WeatherDisplay:10.37,2013-02-10 05:17:00,
2013-02-10 00:22:00,28.5,20.3,30.36,South,187,0.0,0.0,71,0.00,CLR,,0.00,WeatherDisplay:10.37,2013-02-10 05:22:00,
2013-02-10 00:27:00,28.1,21.2,30.36,South,187,0.0,0.0,75,0.00,CLR,,0.00,WeatherDisplay:10.37,2013-02-10 05:27:00,
2013-02-10 00:33:00,27.4,21.1,30.36,South,187,0.0,0.0,77,0.00,CLR,,0.00,WeatherDisplay:10.37,2013-02-10 05:33:00,
2013-02-10 00:38:00,26.9,21.6,30.36,South,187,0.0,0.0,80,0.00,CLR,,0.00,WeatherDisplay:10.37,2013-02-10 05:38:00,
2013-02-10 00:43:00,26.6,21.0,30.36,South,187,0.0,0.0,79,0.00,CLR,,0.00,WeatherDisplay:10.37,2013-02-10 05:43:00,
2013-02-10 00:48:00,26.4,20.5,30.36,South,187,0.0,0.0,78,0.00,CLR,,0.00,WeatherDisplay:10.37,2013-02-10 05:48:00,
2013-02-10 00:54:00,26.1,21.4,30.35,South,187,0.0,0.0,82,0.00,CLR,,0.00,WeatherDisplay:10.37,2013-02-10 05:54:00,
2013-02-10 00:59:00,26.1,21.4,30.35,South,187,0.0,0.0,82,0.00,CLR,,0.00,WeatherDisplay:10.37,2013-02-10 05:59:00,
2013-02-10 01:04:00,25.9,21.2,30.36,South,187,0.0,0.0,82,0.00,CLR,,0.00,WeatherDisplay:10.37,2013-02-10 06:04:00,
2013-02-10 01:09:00,25.7,21.0,30.36,South,187,0.0,0.0,82,0.00,CLR,,0.00,WeatherDisplay:10.37,2013-02-10 06:09:00,
2013-02-10 01:14:00,25.7,19.8,30.36,South,187,0.0,0.0,78,0.00,CLR,,0.00,WeatherDisplay:10.37,2013-02-10 06:14:00,
2013-02-10 01:19:00,26.4,19.8,30.36,South,187,0.0,0.0,76,0.00,CLR,,0.00,WeatherDisplay:10.37,2013-02-10 06:19:00,
2013-02-10 01:25:00,27.1,20.8,30.36,South,187,0.0,0.0,77,0.00,CLR,,0.00,WeatherDisplay:10.37,2013-02-10 06:25:00,
2013-02-10 01:30:00,26.9,21.0,30.36,South,187,0.0,0.0,78,0.00,CLR,,0.00,WeatherDisplay:10.37,2013-02-10 06:30:00,
2013-02-10 01:35:00,26.5,20.9,30.35,South,187,0.0,0.0,79,0.00,CLR,,0.00,WeatherDisplay:10.37,2013-02-10 06:35:00,
2013-02-10 01:40:00,26.0,21.0,30.35,South,187,0.0,0.0,81,0.00,CLR,,0.00,WeatherDisplay:10.37,2013-02-10 06:40:00,
2013-02-10 01:45:00,26.0,20.1,30.35,SSW,207,0.0,0.0,78,0.00,CLR,,0.00,WeatherDisplay:10.37,2013-02-10 06:45:00,
2013-02-10 01:50:00,25.7,21.0,30.36,SSW,207,0.0,0.0,82,0.00,CLR,,0.00,WeatherDisplay:10.37,2013-02-10 06:50:00,
2013-02-10 01:55:00,25.7,20.4,30.36,SSW,207,0.0,0.0,80,0.00,CLR,,0.00,WeatherDisplay:10.37,2013-02-10 06:55:00,
2013-02-10 02:00:00,25.8,20.2,30.36,ESE,120,0.2,1.1,79,0.00,CLR,,0.00,WeatherDisplay:10.37,2013-02-10 07:00:00,
2013-02-10 02:05:00,26.6,20.1,30.36,SSE,155,0.0,1.1,76,0.00,CLR,,0.00,WeatherDisplay:10.37,2013-02-10 07:05:00,
2013-02-10 02:10:00,27.0,19.8,30.36,SSE,153,0.0,0.0,74,0.00,CLR,,0.00,WeatherDisplay:10.37,2013-02-10 07:10:00,
2013-02-10 02:15:00,27.3,19.5,30.36,SSE,155,0.0,0.0,72,0.00,CLR,,0.00,WeatherDisplay:10.37,2013-02-10 07:15:00,
2013-02-10 02:20:00,27.4,19.9,30.37,SSE,161,0.0,0.0,73,0.00,CLR,,0.00,WeatherDisplay:10.37,2013-02-10 07:20:00,
2013-02-10 02:25:00,27.4,19.6,30.37,SSE,161,0.0,0.0,72,0.00,CLR,,0.00,WeatherDisplay:10.37,2013-02-10 07:25:00,
2013-02-10 02:30:00,27.4,19.9,30.37,SSE,160,0.0,0.0,73,0.00,CLR,,0.00,WeatherDisplay:10.37,2013-02-10 07:30:00,
2013-02-10 02:35:00,27.1,20.2,30.37,SSE,160,0.0,0.0,75,0.00,CLR,,0.00,WeatherDisplay:10.37,2013-02-10 07:35:00,
2013-02-10 02:40:00,26.5,20.3,30.37,SE,141,0.0,0.0,77,0.00,CLR,,0.00,WeatherDisplay:10.37,2013-02-10 07:40:00,
2013-02-10 02:45:00,26.2,20.3,30.37,SW,219,0.0,0.0,78,0.00,CLR,,0.00,WeatherDisplay:10.37,2013-02-10 07:45:00,
2013-02-10 02:50:00,25.4,20.4,30.37,East,83,0.8,1.0,81,0.00,CLR,,0.00,WeatherDisplay:10.37,2013-02-10 07:50:00,
2013-02-10 02:55:00,25.4,20.1,30.37,East,85,0.0,0.0,80,0.00,CLR,,0.00,WeatherDisplay:10.37,2013-02-10 07:55:00,
2013-02-10 03:00:00,25.3,20.6,30.37,East,84,0.0,0.0,82,0.00,CLR,,0.00,WeatherDisplay:10.37,2013-02-10 08:00:00,
2013-02-10 03:05:00,25.3,20.3,30.37,South,179,0.1,1.0,81,0.00,CLR,,0.00,WeatherDisplay:10.37,2013-02-10 08:05:00,
2013-02-10 03:10:00,24.9,20.2,30.37,South,179,0.0,0.0,82,0.00,CLR,,0.00,WeatherDisplay:10.37,2013-02-10 08:10:00,
2013-02-10 03:16:00,24.5,20.1,30.38,South,179,0.0,0.0,83,0.00,CLR,,0.00,WeatherDisplay:10.37,2013-02-10 08:16:00,
2013-02-10 03:21:00,24.4,20.0,30.38,South,179,0.0,0.0,83,0.00,CLR,,0.00,WeatherDisplay:10.37,2013-02-10 08:21:00,
2013-02-10 03:26:00,24.3,20.2,30.38,South,179,0.0,0.0,84,0.00,CLR,,0.00,WeatherDisplay:10.37,2013-02-10 08:26:00,
2013-02-10 03:31:00,24.4,19.7,30.38,South,179,0.0,0.0,82,0.00,CLR,,0.00,WeatherDisplay:10.37,2013-02-10 08:31:00,
2013-02-10 03:36:00,24.4,20.3,30.38,South,179,0.0,0.0,84,0.00,CLR,,0.00,WeatherDisplay:10.37,2013-02-10 08:36:00,
2013-02-10 03:41:00,24.3,19.6,30.38,South,179,0.0,0.0,82,0.00,CLR,,0.00,WeatherDisplay:10.37,2013-02-10 08:41:00,
2013-02-10 03:46:00,24.1,19.7,30.38,South,179,0.0,0.0,83,0.00,CLR,,0.00,WeatherDisplay:10.37,2013-02-10 08:46:00,
2013-02-10 03:51:00,24.0,19.6,30.38,South,187,0.0,0.0,83,0.00,CLR,,0.00,WeatherDisplay:10.37,2013-02-10 08:51:00,
2013-02-10 03:57:00,23.6,19.8,30.38,SSW,210,0.0,0.0,85,0.00,CLR,,0.00,WeatherDisplay:10.37,2013-02-10 08:57:00,
2013-02-10 04:02:00,23.6,20.0,30.38,SSW,210,0.0,0.0,86,0.00,CLR,,0.00,WeatherDisplay:10.37,2013-02-10 09:02:00,
2013-02-10 04:08:00,23.5,19.9,30.38,SSW,210,0.0,0.0,86,0.00,CLR,,0.00,WeatherDisplay:10.37,2013-02-10 09:08:00,
2013-02-10 04:13:00,23.5,19.9,30.38,SSW,210,0.0,0.0,86,0.00,CLR,,0.00,WeatherDisplay:10.37,2013-02-10 09:13:00,
2013-02-10 04:18:00,23.7,19.9,30.38,SSW,210,0.0,0.0,85,0.00,CLR,,0.00,WeatherDisplay:10.37,2013-02-10 09:18:00,
2013-02-10 04:23:00,24.0,19.6,30.38,SE,146,0.0,0.0,83,0.00,CLR,,0.00,WeatherDisplay:10.37,2013-02-10 09:23:00,
2013-02-10 04:28:00,23.9,19.8,30.38,South,174,0.0,0.0,84,0.00,CLR,,0.00,WeatherDisplay:10.37,2013-02-10 09:28:00,
2013-02-10 04:33:00,23.9,20.0,30.39,SE,143,0.0,0.0,85,0.00,CLR,,0.00,WeatherDisplay:10.37,2013-02-10 09:33:00,
2013-02-10 04:38:00,24.0,20.1,30.38,SE,143,0.0,0.0,85,0.00,CLR,,0.00,WeatherDisplay:10.37,2013-02-10 09:38:00,
2013-02-10 04:43:00,23.8,19.9,30.39,SE,144,0.0,0.0,85,0.00,CLR,,0.00,WeatherDisplay:10.37,2013-02-10 09:43:00,
2013-02-10 04:48:00,23.5,19.7,30.39,SE,146,0.0,0.0,85,0.00,CLR,,0.00,WeatherDisplay:10.37,2013-02-10 09:48:00,
2013-02-10 04:53:00,23.6,20.0,30.39,ESE,103,0.0,0.0,86,0.00,CLR,,0.00,WeatherDisplay:10.37,2013-02-10 09:53:00,
2013-02-10 04:59:00,23.7,19.9,30.39,ESE,103,0.0,0.0,85,0.00,CLR,,0.00,WeatherDisplay:10.37,2013-02-10 09:59:00,
2013-02-10 05:04:00,23.5,19.7,30.39,South,172,0.0,0.0,85,0.00,CLR,,0.00,WeatherDisplay:10.37,2013-02-10 10:04:00,
2013-02-10 05:09:00,23.3,19.7,30.39,South,173,0.0,0.0,86,0.00,CLR,,0.00,WeatherDisplay:10.37,2013-02-10 10:09:00,
2013-02-10 05:14:00,23.2,19.6,30.39,South,173,0.0,0.0,86,0.00,CLR,,0.00,WeatherDisplay:10.37,2013-02-10 10:14:00,
2013-02-10 05:19:00,23.2,19.9,30.39,WSW,241,0.0,0.0,87,0.00,CLR,,0.00,WeatherDisplay:10.37,2013-02-10 10:19:00,
2013-02-10 05:24:00,23.2,19.9,30.39,WSW,242,0.2,1.0,87,0.00,CLR,,0.00,WeatherDisplay:10.37,2013-02-10 10:24:00,
2013-02-10 05:29:00,24.0,19.9,30.39,WSW,241,0.0,0.0,84,0.00,CLR,,0.00,WeatherDisplay:10.37,2013-02-10 10:29:00,
2013-02-10 05:34:00,24.4,20.3,30.39,WSW,242,0.0,0.0,84,0.00,CLR,,0.00,WeatherDisplay:10.37,2013-02-10 10:34:00,
2013-02-10 05:39:00,24.3,20.4,30.40,WSW,241,0.0,1.0,85,0.00,CLR,,0.00,WeatherDisplay:10.37,2013-02-10 10:39:00,
2013-02-10 05:44:00,24.1,20.2,30.40,WSW,241,0.0,0.0,85,0.00,CLR,,0.00,WeatherDisplay:10.37,2013-02-10 10:44:00,
2013-02-10 05:49:00,24.3,20.4,30.40,WSW,242,0.0,0.0,85,0.00,CLR,,0.00,WeatherDisplay:10.37,2013-02-10 10:49:00,
2013-02-10 05:54:00,24.4,20.5,30.40,WSW,242,0.0,0.0,85,0.00,CLR,,0.00,WeatherDisplay:10.37,2013-02-10 10:54:00,
2013-02-10 05:59:00,24.4,20.5,30.40,SW,235,0.0,1.0,85,0.00,CLR,,0.00,WeatherDisplay:10.37,2013-02-10 10:59:00,
2013-02-10 06:04:00,24.4,20.5,30.40,SW,233,0.0,0.0,85,0.00,CLR,,0.00,WeatherDisplay:10.37,2013-02-10 11:04:00,
2013-02-10 06:09:00,24.6,20.7,30.40,SW,235,0.0,0.0,85,0.00,CLR,,0.00,WeatherDisplay:10.37,2013-02-10 11:09:00,
2013-02-10 06:14:00,24.7,20.6,30.41,SW,235,0.0,0.0,84,0.00,CLR,,0.00,WeatherDisplay:10.37,2013-02-10 11:14:00,
2013-02-10 06:19:00,24.7,20.8,30.41,SW,235,0.0,0.0,85,0.00,CLR,,0.00,WeatherDisplay:10.37,2013-02-10 11:19:00,
2013-02-10 06:24:00,24.7,20.8,30.41,SW,235,0.0,0.0,85,0.00,CLR,,0.00,WeatherDisplay:10.37,2013-02-10 11:24:00,
2013-02-10 06:29:00,24.8,21.2,30.41,SW,233,0.0,0.0,86,0.00,CLR,,0.00,WeatherDisplay:10.37,2013-02-10 11:29:00,
2013-02-10 06:34:00,24.8,21.2,30.42,SW,234,0.0,0.0,86,0.00,CLR,,0.00,WeatherDisplay:10.37,2013-02-10 11:34:00,
2013-02-10 06:39:00,24.9,21.3,30.42,SW,235,0.0,0.0,86,0.00,CLR,,0.00,WeatherDisplay:10.37,2013-02-10 11:39:00,
2013-02-10 06:44:00,25.0,21.4,30.42,SW,233,0.0,0.0,86,0.00,CLR,,0.00,WeatherDisplay:10.37,2013-02-10 11:44:00,
2013-02-10 06:49:00,25.2,21.6,30.42,SW,234,0.0,0.0,86,0.00,CLR,,0.00,WeatherDisplay:10.37,2013-02-10 11:49:00,
2013-02-10 06:54:00,25.4,21.8,30.42,SW,235,0.0,0.0,86,0.00,CLR,,0.00,WeatherDisplay:10.37,2013-02-10 11:54:00,
2013-02-10 06:59:00,25.5,21.9,30.43,SW,233,0.0,0.0,86,0.00,CLR,,0.00,WeatherDisplay:10.37,2013-02-10 11:59:00,
2013-02-10 07:04:00,25.7,22.1,30.43,SW,233,0.0,0.0,86,0.00,CLR,,0.00,WeatherDisplay:10.37,2013-02-10 12:04:00,
2013-02-10 07:09:00,25.7,21.8,30.43,SW,235,0.0,0.0,85,0.00,CLR,,0.00,WeatherDisplay:10.37,2013-02-10 12:09:00,
2013-02-10 07:14:00,25.9,22.0,30.43,SW,233,0.0,0.0,85,0.00,CLR,,0.00,WeatherDisplay:10.37,2013-02-10 12:14:00,
2013-02-10 07:19:00,26.2,22.0,30.44,SW,233,0.0,0.0,84,0.00,CLR,,0.00,WeatherDisplay:10.37,2013-02-10 12:19:00,
2013-02-10 07:24:00,26.4,22.2,30.44,SW,233,0.0,0.0,84,0.00,CLR,,0.00,WeatherDisplay:10.37,2013-02-10 12:24:00,
2013-02-10 07:29:00,26.7,21.9,30.44,SW,233,0.0,0.0,82,0.00,CLR,,0.00,WeatherDisplay:10.37,2013-02-10 12:29:00,
2013-02-10 07:34:00,26.9,22.4,30.44,SW,233,0.0,0.0,83,0.00,CLR,,0.00,WeatherDisplay:10.37,2013-02-10 12:34:00,
2013-02-10 07:40:00,26.7,22.5,30.44,SW,233,0.0,0.0,84,0.00,CLR,,0.00,WeatherDisplay:10.37,2013-02-10 12:40:00,
2013-02-10 07:46:00,26.7,22.8,30.44,SW,233,0.0,0.0,85,0.00,CLR,,0.00,WeatherDisplay:10.37,2013-02-10 12:46:00,
2013-02-10 07:51:00,26.7,22.8,30.44,SW,233,0.0,0.0,85,0.00,CLR,,0.00,WeatherDisplay:10.37,2013-02-10 12:51:00,
2013-02-10 07:56:00,26.7,22.5,30.44,SW,233,0.0,0.0,84,0.00,CLR,,0.00,WeatherDisplay:10.37,2013-02-10 12:56:00,
2013-02-10 08:01:00,26.9,23.0,30.45,SW,233,0.0,0.0,85,0.00,CLR,,0.00,WeatherDisplay:10.37,2013-02-10 13:01:00,
2013-02-10 08:06:00,27.1,23.2,30.45,SW,233,0.0,0.0,85,0.00,SCT,,0.00,WeatherDisplay:10.37,2013-02-10 13:06:00,
2013-02-10 08:11:00,27.5,23.3,30.45,SW,233,0.0,0.0,84,0.00,SCT,,0.00,WeatherDisplay:10.37,2013-02-10 13:11:00,
2013-02-10 08:16:00,28.1,22.7,30.45,East,85,0.2,1.1,80,0.00,SCT,,0.00,WeatherDisplay:10.37,2013-02-10 13:16:00,
2013-02-10 08:21:00,28.6,22.9,30.45,North,359,0.0,0.0,79,0.00,SCT,,0.00,WeatherDisplay:10.37,2013-02-10 13:21:00,
2013-02-10 08:26:00,29.0,23.0,30.45,WNW,284,0.0,0.0,78,0.00,SCT,,0.00,WeatherDisplay:10.37,2013-02-10 13:26:00,
2013-02-10 08:31:00,29.4,22.1,30.45,WNW,285,0.0,1.1,74,0.00,SCT,,0.00,WeatherDisplay:10.37,2013-02-10 13:31:00,
2013-02-10 08:36:00,29.9,22.3,30.45,WNW,285,0.0,0.0,73,0.00,SCT,,0.00,WeatherDisplay:10.37,2013-02-10 13:36:00,
2013-02-10 08:41:00,30.1,22.8,30.45,WNW,282,0.0,0.0,74,0.00,SCT,,0.00,WeatherDisplay:10.37,2013-02-10 13:41:00,
2013-02-10 08:46:00,30.2,23.2,30.45,WNW,284,0.0,0.0,75,0.00,SCT,,0.00,WeatherDisplay:10.37,2013-02-10 13:46:00,
2013-02-10 08:51:00,30.4,23.1,30.45,WNW,284,0.0,0.0,74,0.00,SCT,,0.00,WeatherDisplay:10.37,2013-02-10 13:51:00,
2013-02-10 08:56:00,30.7,22.4,30.45,NNE,27,0.0,1.0,71,0.00,SCT,,0.00,WeatherDisplay:10.37,2013-02-10 13:56:00,
2013-02-10 09:01:00,31.4,21.0,30.45,NE,42,0.4,2.3,65,0.00,SCT,,0.00,WeatherDisplay:10.37,2013-02-10 14:01:00,
2013-02-10 09:07:00,32.0,21.2,30.45,ESE,106,0.1,1.0,64,0.00,SCT,,0.00,WeatherDisplay:10.37,2013-02-10 14:07:00,
2013-02-10 09:12:00,32.5,20.9,30.45,NE,49,0.0,0.0,62,0.00,SCT,,0.00,WeatherDisplay:10.37,2013-02-10 14:12:00,
2013-02-10 09:17:00,32.8,20.0,30.44,East,79,0.5,2.0,59,0.00,FEW,,0.00,WeatherDisplay:10.37,2013-02-10 14:17:00,
2013-02-10 09:22:00,33.1,19.9,30.44,East,89,0.6,2.3,58,0.00,FEW,,0.00,WeatherDisplay:10.37,2013-02-10 14:22:00,
2013-02-10 09:27:00,33.2,19.6,30.44,ESE,122,0.1,1.1,57,0.00,FEW,,0.00,WeatherDisplay:10.37,2013-02-10 14:27:00,
2013-02-10 09:32:00,33.3,19.7,30.44,ESE,121,0.0,1.1,57,0.00,FEW,,0.00,WeatherDisplay:10.37,2013-02-10 14:32:00,
2013-02-10 09:37:00,33.4,20.2,30.44,SSE,155,0.0,1.1,58,0.00,FEW,,0.00,WeatherDisplay:10.37,2013-02-10 14:37:00,
2013-02-10 09:42:00,33.6,20.0,30.45,SE,127,0.0,1.0,57,0.00,FEW,,0.00,WeatherDisplay:10.37,2013-02-10 14:42:00,
2013-02-10 09:47:00,33.7,19.7,30.45,SE,125,0.0,1.1,56,0.00,FEW,,0.00,WeatherDisplay:10.37,2013-02-10 14:47:00,
2013-02-10 09:52:00,34.0,20.3,30.45,ESE,106,0.0,0.0,57,0.00,FEW,,0.00,WeatherDisplay:10.37,2013-02-10 14:52:00,
2013-02-10 09:57:00,34.4,20.3,30.44,ESE,120,0.0,1.0,56,0.00,FEW,,0.00,WeatherDisplay:10.37,2013-02-10 14:57:00,
2013-02-10 10:02:00,34.9,20.8,30.45,ESE,115,1.5,4.0,56,0.00,FEW,,0.00,WeatherDisplay:10.37,2013-02-10 15:02:00,
2013-02-10 10:07:00,35.1,20.5,30.44,ESE,114,0.4,1.1,55,0.00,FEW,,0.00,WeatherDisplay:10.37,2013-02-10 15:07:00,
2013-02-10 10:12:00,35.3,20.3,30.44,North,356,0.6,2.0,54,0.00,FEW,,0.00,WeatherDisplay:10.37,2013-02-10 15:12:00,
2013-02-10 10:17:00,35.4,19.9,30.44,ESE,118,0.0,1.0,53,0.00,CLR,,0.00,WeatherDisplay:10.37,2013-02-10 15:17:00,
2013-02-10 10:22:00,35.4,19.9,30.44,SSW,200,0.0,1.1,53,0.00,CLR,,0.00,WeatherDisplay:10.37,2013-02-10 15:22:00,
2013-02-10 10:27:00,35.7,20.7,30.44,ESE,107,0.0,1.1,54,0.00,CLR,,0.00,WeatherDisplay:10.37,2013-02-10 15:27:00,
2013-02-10 10:32:00,36.0,20.1,30.43,ESE,107,0.5,1.1,52,0.00,CLR,,0.00,WeatherDisplay:10.37,2013-02-10 15:32:00,
2013-02-10 10:37:00,36.2,20.2,30.43,SE,142,0.0,0.0,52,0.00,CLR,,0.00,WeatherDisplay:10.37,2013-02-10 15:37:00,
2013-02-10 10:43:00,36.8,20.3,30.43,WNW,295,0.4,2.0,51,0.00,CLR,,0.00,WeatherDisplay:10.37,2013-02-10 15:43:00,
2013-02-10 10:48:00,37.2,21.2,30.43,ESE,104,1.0,2.3,52,0.00,CLR,,0.00,WeatherDisplay:10.37,2013-02-10 15:48:00,
2013-02-10 10:53:00,37.2,20.2,30.43,ESE,110,0.3,2.3,50,0.00,CLR,,0.00,WeatherDisplay:10.37,2013-02-10 15:53:00,
2013-02-10 10:58:00,37.5,20.5,30.43,NE,37,0.9,4.0,50,0.00,CLR,,0.00,WeatherDisplay:10.37,2013-02-10 15:58:00,
2013-02-10 11:03:00,37.6,20.1,30.43,ENE,64,1.5,3.5,49,0.00,CLR,,0.00,WeatherDisplay:10.37,2013-02-10 16:03:00,
2013-02-10 11:08:00,38.1,19.6,30.43,East,83,2.5,4.0,47,0.00,FEW,,0.00,WeatherDisplay:10.37,2013-02-10 16:08:00,
2013-02-10 11:14:00,38.6,19.6,30.42,SW,214,2.7,5.0,46,0.00,FEW,,0.00,WeatherDisplay:10.37,2013-02-10 16:14:00,
2013-02-10 11:20:00,39.0,20.9,30.42,SSE,148,0.1,1.1,48,0.00,FEW,,0.00,WeatherDisplay:10.37,2013-02-10 16:20:00,
2013-02-10 11:25:00,39.6,22.0,30.42,ESE,121,1.4,3.5,49,0.00,FEW,,0.00,WeatherDisplay:10.37,2013-02-10 16:25:00,
2013-02-10 11:30:00,39.5,20.4,30.42,ESE,113,1.6,3.0,46,0.00,FEW,,0.00,WeatherDisplay:10.37,2013-02-10 16:30:00,
2013-02-10 11:35:00,39.4,20.3,30.42,ESE,110,1.0,3.5,46,0.00,FEW,,0.00,WeatherDisplay:10.37,2013-02-10 16:35:00,
2013-02-10 11:41:00,39.3,20.2,30.42,ENE,67,1.5,3.5,46,0.00,FEW,,0.00,WeatherDisplay:10.37,2013-02-10 16:41:00,
2013-02-10 11:46:00,39.7,21.6,30.41,SSE,164,1.4,4.6,48,0.00,FEW,,0.00,WeatherDisplay:10.37,2013-02-10 16:46:00,
2013-02-10 11:51:00,39.9,20.8,30.40,East,84,1.7,3.0,46,0.00,FEW,,0.00,WeatherDisplay:10.37,2013-02-10 16:51:00,
2013-02-10 11:57:00,39.9,21.3,30.40,SE,125,1.5,3.5,47,0.00,FEW,,0.00,WeatherDisplay:10.37,2013-02-10 16:57:00,
2013-02-10 12:02:00,40.1,21.0,30.39,ESE,120,0.5,3.5,46,0.00,FEW,,0.00,WeatherDisplay:10.37,2013-02-10 17:02:00,
2013-02-10 12:07:00,40.6,21.4,30.39,ESE,105,3.4,5.0,46,0.00,CLR,,0.00,WeatherDisplay:10.37,2013-02-10 17:07:00,
2013-02-10 12:12:00,40.4,21.2,30.39,East,82,2.1,4.6,46,0.00,CLR,,0.00,WeatherDisplay:10.37,2013-02-10 17:12:00,
2013-02-10 12:17:00,41.4,21.6,30.38,SE,124,1.1,3.5,45,0.00,CLR,,0.00,WeatherDisplay:10.37,2013-02-10 17:17:00,
2013-02-10 12:22:00,41.6,21.8,30.38,ENE,78,1.5,4.6,45,0.00,CLR,,0.00,WeatherDisplay:10.37,2013-02-10 17:22:00,
2013-02-10 12:27:00,41.8,22.0,30.37,ENE,68,1.0,2.3,45,0.00,CLR,,0.00,WeatherDisplay:10.37,2013-02-10 17:27:00,
2013-02-10 12:32:00,42.2,21.3,30.38,ESE,112,2.5,3.5,43,0.00,CLR,,0.00,WeatherDisplay:10.37,2013-02-10 17:32:00,
2013-02-10 12:34:00,42.4,22.0,30.37,ESE,110,1.0,2.0,44,0.00,CLR,,0.00,WeatherDisplay:10.37,2013-02-10 17:34:00,
2013-02-10 12:39:00,43.3,22.8,30.37,SE,127,1.0,3.0,44,0.00,CLR,,0.00,WeatherDisplay:10.37,2013-02-10 17:39:00,
2013-02-10 12:44:00,44.3,22.6,30.37,SSE,151,1.0,4.0,42,0.00,CLR,,0.00,WeatherDisplay:10.37,2013-02-10 17:44:00,
2013-02-10 12:49:00,44.5,22.8,30.36,ESE,120,0.0,3.0,42,0.00,CLR,,0.00,WeatherDisplay:10.37,2013-02-10 17:49:00,
2013-02-10 12:54:00,44.6,22.3,30.35,ESE,110,1.0,6.0,41,0.00,CLR,,0.00,WeatherDisplay:10.37,2013-02-10 17:54:00,
2013-02-10 12:59:00,45.2,23.4,30.35,East,98,0.0,2.0,42,0.00,CLR,,0.00,WeatherDisplay:10.37,2013-02-10 17:59:00,
2013-02-10 13:04:00,45.7,22.7,30.34,East,92,3.0,5.0,40,0.00,CLR,,0.00,WeatherDisplay:10.37,2013-02-10 18:04:00,
2013-02-10 13:09:00,45.1,22.2,30.34,ESE,119,2.0,5.0,40,0.00,CLR,,0.00,WeatherDisplay:10.37,2013-02-10 18:09:00,
2013-02-10 13:14:00,45.4,23.6,30.33,ESE,113,2.0,4.0,42,0.00,CLR,,0.00,WeatherDisplay:10.37,2013-02-10 18:14:00,
2013-02-10 13:19:00,45.8,22.8,30.33,ESE,102,2.0,5.0,40,0.00,CLR,,0.00,WeatherDisplay:10.37,2013-02-10 18:19:00,
2013-02-10 13:24:00,45.7,22.1,30.33,ESE,105,3.0,4.0,39,0.00,CLR,,0.00,WeatherDisplay:10.37,2013-02-10 18:24:00,
2013-02-10 13:34:00,45.5,21.9,30.33,East,91,1.0,4.0,39,0.00,CLR,,0.00,WeatherDisplay:10.37,2013-02-10 18:34:00,
2013-02-10 13:39:00,45.2,22.3,30.33,East,84,2.0,4.0,40,0.00,CLR,,0.00,WeatherDisplay:10.37,2013-02-10 18:39:00,
2013-02-10 13:44:00,44.9,22.0,30.33,East,98,1.0,6.0,40,0.00,CLR,,0.00,WeatherDisplay:10.37,2013-02-10 18:44:00,
2013-02-10 13:49:00,45.2,21.7,30.33,ESE,106,1.0,5.0,39,0.00,CLR,,0.00,WeatherDisplay:10.37,2013-02-10 18:49:00,
2013-02-10 13:54:00,45.3,23.5,30.32,East,98,0.0,3.0,42,0.00,CLR,,0.00,WeatherDisplay:10.37,2013-02-10 18:54:00,
2013-02-10 14:00:00,46.0,23.0,30.32,WSW,246,0.0,6.0,40,0.00,CLR,,0.00,WeatherDisplay:10.37,2013-02-10 19:00:00,
2013-02-10 14:05:00,46.8,23.1,30.32,East,91,0.7,3.5,39,0.00,CLR,,0.00,WeatherDisplay:10.37,2013-02-10 19:05:00,
2013-02-10 14:10:00,47.6,23.8,30.32,South,173,3.6,7.0,39,0.00,CLR,,0.00,WeatherDisplay:10.37,2013-02-10 19:10:00,
2013-02-10 14:15:00,47.7,23.3,30.31,South,179,2.4,6.0,38,0.00,CLR,,0.00,WeatherDisplay:10.37,2013-02-10 19:15:00,
2013-02-10 14:20:00,48.2,23.1,30.30,SW,224,2.5,8.1,37,0.00,CLR,,0.00,WeatherDisplay:10.37,2013-02-10 19:20:00,
2013-02-10 14:25:00,48.3,23.8,30.30,NE,53,2.0,4.0,38,0.00,CLR,,0.00,WeatherDisplay:10.37,2013-02-10 19:25:00,
2013-02-10 14:30:00,48.2,23.7,30.30,SE,129,1.9,4.6,38,0.00,CLR,,0.00,WeatherDisplay:10.37,2013-02-10 19:30:00,
2013-02-10 14:35:00,48.7,22.9,30.30,East,95,1.5,8.1,36,0.00,CLR,,0.00,WeatherDisplay:10.37,2013-02-10 19:35:00,
2013-02-10 14:40:00,49.1,23.9,30.29,East,89,0.0,1.1,37,0.00,CLR,,0.00,WeatherDisplay:10.37,2013-02-10 19:40:00,
2013-02-10 14:45:00,49.8,24.5,30.28,SE,141,0.8,3.5,37,0.00,CLR,,0.00,WeatherDisplay:10.37,2013-02-10 19:45:00,
2013-02-10 14:51:00,49.2,22.7,30.28,East,83,3.8,6.0,35,0.00,CLR,,0.00,WeatherDisplay:10.37,2013-02-10 19:51:00,
2013-02-10 14:57:00,48.9,23.7,30.28,West,281,1.0,3.5,37,0.00,CLR,,0.00,WeatherDisplay:10.37,2013-02-10 19:57:00,
2013-02-10 15:03:00,49.1,23.9,30.28,ENE,76,1.1,3.5,37,0.00,CLR,,0.00,WeatherDisplay:10.37,2013-02-10 20:03:00,
2013-02-10 15:09:00,49.2,23.4,30.27,East,94,3.5,6.0,36,0.00,CLR,,0.00,WeatherDisplay:10.37,2013-02-10 20:09:00,
2013-02-10 15:13:00,48.7,22.9,30.28,ESE,110,2.0,4.0,36,0.00,CLR,,0.00,WeatherDisplay:10.37,2013-02-10 20:13:00,
2013-02-10 15:19:00,48.8,23.6,30.28,ESE,111,1.7,8.1,37,0.00,CLR,,0.00,WeatherDisplay:10.37,2013-02-10 20:19:00,
2013-02-10 15:24:00,49.3,24.1,30.28,SSW,209,1.0,0.0,37,0.00,CLR,,0.00,WeatherDisplay:10.37,2013-02-10 20:24:00,
2013-02-10 15:29:00,49.8,23.9,30.28,East,97,0.7,3.5,36,0.00,CLR,,0.00,WeatherDisplay:10.37,2013-02-10 20:29:00,
2013-02-10 15:35:00,49.7,24.5,30.27,ESE,113,0.3,3.5,37,0.00,CLR,,0.00,WeatherDisplay:10.37,2013-02-10 20:35:00,
2013-02-10 15:41:00,49.7,24.5,30.27,SW,228,1.1,2.3,37,0.00,CLR,,0.00,WeatherDisplay:10.37,2013-02-10 20:41:00,
2013-02-10 15:46:00,49.8,24.5,30.28,SW,221,0.8,3.5,37,0.00,CLR,,0.00,WeatherDisplay:10.37,2013-02-10 20:46:00,
2013-02-10 15:51:00,49.9,24.0,30.28,NW,320,1.0,5.8,36,0.00,CLR,,0.00,WeatherDisplay:10.37,2013-02-10 20:51:00,
2013-02-10 15:56:00,50.0,24.1,30.28,WNW,297,0.7,3.5,36,0.00,CLR,,0.00,WeatherDisplay:10.37,2013-02-10 20:56:00,
2013-02-10 16:01:00,49.9,24.6,30.28,NE,53,1.5,3.5,37,0.00,FEW,,0.00,WeatherDisplay:10.37,2013-02-10 21:01:00,
2013-02-10 16:06:00,49.7,23.8,30.27,NE,45,1.2,3.5,36,0.00,FEW,,0.00,WeatherDisplay:10.37,2013-02-10 21:06:00,
2013-02-10 16:11:00,49.4,24.8,30.27,SW,221,0.9,3.0,38,0.00,FEW,,0.00,WeatherDisplay:10.37,2013-02-10 21:11:00,
2013-02-10 16:17:00,49.3,24.1,30.27,ENE,61,1.4,3.0,37,0.00,FEW,,0.00,WeatherDisplay:10.37,2013-02-10 21:17:00,
2013-02-10 16:22:00,49.0,25.1,30.26,SSW,207,0.4,2.3,39,0.00,FEW,,0.00,WeatherDisplay:10.37,2013-02-10 21:22:00,
2013-02-10 16:27:00,48.9,24.4,30.26,East,95,1.0,3.5,38,0.00,FEW,,0.00,WeatherDisplay:10.37,2013-02-10 21:27:00,
2013-02-10 16:32:00,48.5,24.0,30.25,ESE,113,0.0,3.5,38,0.00,FEW,,0.00,WeatherDisplay:10.37,2013-02-10 21:32:00,
2013-02-10 16:37:00,48.1,24.3,30.26,NNW,344,0.1,3.5,39,0.00,FEW,,0.00,WeatherDisplay:10.37,2013-02-10 21:37:00,
2013-02-10 16:42:00,48.1,23.7,30.26,SSW,210,0.5,2.3,38,0.00,FEW,,0.00,WeatherDisplay:10.37,2013-02-10 21:42:00,
2013-02-10 16:47:00,47.9,24.1,30.26,WSW,239,0.5,2.3,39,0.00,FEW,,0.00,WeatherDisplay:10.37,2013-02-10 21:47:00,
2013-02-10 16:52:00,47.6,23.8,30.26,NE,53,0.6,2.3,39,0.00,FEW,,0.00,WeatherDisplay:10.37,2013-02-10 21:52:00,
2013-02-10 16:57:00,47.4,24.3,30.25,NNW,330,0.1,1.1,40,0.00,FEW,,0.00,WeatherDisplay:10.37,2013-02-10 21:57:00,
2013-02-10 17:02:00,47.3,24.2,30.25,South,169,0.0,2.3,40,0.00,FEW,,0.00,WeatherDisplay:10.37,2013-02-10 22:02:00,
2013-02-10 17:07:00,47.1,24.6,30.26,NNW,328,0.6,2.3,41,0.00,FEW,,0.00,WeatherDisplay:10.37,2013-02-10 22:07:00,
2013-02-10 17:12:00,47.1,24.6,30.26,East,90,0.5,3.0,41,0.00,FEW,,0.00,WeatherDisplay:10.37,2013-02-10 22:12:00,
2013-02-10 17:17:00,47.0,24.5,30.25,East,89,0.0,1.1,41,0.00,FEW,,0.00,WeatherDisplay:10.37,2013-02-10 22:17:00,
2013-02-10 17:22:00,46.8,24.3,30.25,NE,39,0.4,1.1,41,0.00,FEW,,0.00,WeatherDisplay:10.37,2013-02-10 22:22:00,
2013-02-10 17:27:00,46.7,24.2,30.25,ESE,107,0.5,2.0,41,0.00,FEW,,0.00,WeatherDisplay:10.37,2013-02-10 22:27:00,
2013-02-10 17:32:00,46.6,24.1,30.25,ENE,58,0.6,3.0,41,0.00,FEW,,0.00,WeatherDisplay:10.37,2013-02-10 22:32:00,
2013-02-10 17:37:00,46.5,23.4,30.26,NNE,31,1.0,3.5,40,0.00,FEW,,0.00,WeatherDisplay:10.37,2013-02-10 22:37:00,
2013-02-10 17:42:00,46.5,23.4,30.25,East,101,0.0,0.0,40,0.00,FEW,,0.00,WeatherDisplay:10.37,2013-02-10 22:42:00,
2013-02-10 17:47:00,46.5,23.4,30.25,East,90,1.7,2.3,40,0.00,FEW,,0.00,WeatherDisplay:10.37,2013-02-10 22:47:00,
2013-02-10 17:53:00,46.5,22.8,30.24,ENE,72,0.7,2.3,39,0.00,FEW,,0.00,WeatherDisplay:10.37,2013-02-10 22:53:00,
2013-02-10 17:58:00,46.5,23.4,30.25,NE,43,0.6,2.0,40,0.00,FEW,,0.00,WeatherDisplay:10.37,2013-02-10 22:58:00,
2013-02-10 18:03:00,46.4,23.4,30.25,WSW,256,0.4,2.3,40,0.00,FEW,,0.00,WeatherDisplay:10.37,2013-02-10 23:03:00,
2013-02-10 18:09:00,46.3,23.9,30.25,WSW,238,0.1,2.3,41,0.00,FEW,,0.00,WeatherDisplay:10.37,2013-02-10 23:09:00,
2013-02-10 18:14:00,46.2,23.8,30.25,NNE,14,0.1,1.1,41,0.00,FEW,,0.00,WeatherDisplay:10.37,2013-02-10 23:14:00,
2013-02-10 18:19:00,46.1,23.7,30.25,East,100,1.0,0.0,41,0.00,FEW,,0.00,WeatherDisplay:10.37,2013-02-10 23:19:00,
2013-02-10 18:24:00,46.1,23.1,30.26,ENE,77,0.0,0.0,40,0.00,FEW,,0.00,WeatherDisplay:10.37,2013-02-10 23:24:00,
2013-02-10 18:30:00,46.1,23.1,30.26,NE,40,0.0,1.1,40,0.00,FEW,,0.00,WeatherDisplay:10.37,2013-02-10 23:30:00,
2013-02-10 18:35:00,46.1,23.7,30.27,ESE,107,0.0,2.3,41,0.00,FEW,,0.00,WeatherDisplay:10.37,2013-02-10 23:35:00,
2013-02-10 18:39:00,46.2,22.6,30.26,ENE,72,2.0,2.0,39,0.00,CLR,,0.00,WeatherDisplay:10.37,2013-02-10 23:39:00,
2013-02-10 18:44:00,46.2,23.2,30.26,ENE,64,1.0,3.0,40,0.00,CLR,,0.00,WeatherDisplay:10.37,2013-02-10 23:44:00,
2013-02-10 18:49:00,46.2,23.2,30.27,NE,48,0.0,1.0,40,0.00,CLR,,0.00,WeatherDisplay:10.37,2013-02-10 23:49:00,
2013-02-10 18:54:00,46.0,23.0,30.26,NE,36,1.0,2.0,40,0.00,CLR,,0.00,WeatherDisplay:10.37,2013-02-10 23:54:00,
2013-02-10 18:59:00,45.9,23.5,30.26,NNE,25,0.0,2.0,41,0.00,CLR,,0.00,WeatherDisplay:10.37,2013-02-10 23:59:00,
2013-02-10 19:04:00,45.7,23.3,30.26,North,6,0.0,2.0,41,0.00,CLR,,0.00,WeatherDisplay:10.37,2013-02-11 00:04:00,
2013-02-10 19:09:00,45.7,23.3,30.27,WNW,293,0.0,2.0,41,0.00,CLR,,0.00,WeatherDisplay:10.37,2013-02-11 00:09:00,
2013-02-10 19:14:00,45.5,23.7,30.27,SW,225,0.0,0.0,42,0.00,CLR,,0.00,WeatherDisplay:10.37,2013-02-11 00:14:00,
2013-02-10 19:19:00,45.4,23.6,30.27,SW,225,0.0,0.0,42,0.00,CLR,,0.00,WeatherDisplay:10.37,2013-02-11 00:19:00,
2013-02-10 19:24:00,45.3,23.5,30.27,SW,225,0.0,0.0,42,0.00,CLR,,0.00,WeatherDisplay:10.37,2013-02-11 00:24:00,
2013-02-10 19:29:00,45.2,24.0,30.27,SW,225,0.0,1.0,43,0.00,CLR,,0.00,WeatherDisplay:10.37,2013-02-11 00:29:00,
2013-02-10 19:34:00,45.1,23.9,30.27,SW,225,0.0,1.0,43,0.00,CLR,,0.00,WeatherDisplay:10.37,2013-02-11 00:34:00,
2013-02-10 19:39:00,45.0,23.3,30.27,SW,225,0.0,0.0,42,0.00,CLR,,0.00,WeatherDisplay:10.37,2013-02-11 00:39:00,
2013-02-10 19:44:00,44.9,23.2,30.27,SW,225,0.0,0.0,42,0.00,CLR,,0.00,WeatherDisplay:10.37,2013-02-11 00:44:00,
2013-02-10 19:49:00,44.8,23.1,30.27,SW,225,0.0,0.0,42,0.00,CLR,,0.00,WeatherDisplay:10.37,2013-02-11 00:49:00,
2013-02-10 19:54:00,44.9,22.6,30.27,SW,225,0.0,1.0,41,0.00,CLR,,0.00,WeatherDisplay:10.37,2013-02-11 00:54:00,
2013-02-10 19:59:00,45.0,23.3,30.27,SW,225,0.0,1.0,42,0.00,CLR,,0.00,WeatherDisplay:10.37,2013-02-11 00:59:00,
2013-02-10 20:04:00,44.9,23.2,30.27,SW,223,1.0,2.0,42,0.00,CLR,,0.00,WeatherDisplay:10.37,2013-02-11 01:04:00,
2013-02-10 20:09:00,45.0,23.8,30.27,SE,127,0.0,1.0,43,0.00,CLR,,0.00,WeatherDisplay:10.37,2013-02-11 01:09:00,
2013-02-10 20:14:00,44.8,23.6,30.27,East,88,0.0,1.0,43,0.00,CLR,,0.00,WeatherDisplay:10.37,2013-02-11 01:14:00,
2013-02-10 20:19:00,44.7,24.1,30.27,East,90,0.0,1.0,44,0.00,CLR,,0.00,WeatherDisplay:10.37,2013-02-11 01:19:00,
2013-02-10 20:24:00,44.7,24.1,30.27,East,90,0.0,2.0,44,0.00,CLR,,0.00,WeatherDisplay:10.37,2013-02-11 01:24:00,
2013-02-10 20:29:00,44.8,23.6,30.26,East,92,1.0,2.0,43,0.00,CLR,,0.00,WeatherDisplay:10.37,2013-02-11 01:29:00,
2013-02-10 20:34:00,44.9,23.7,30.26,East,81,0.0,1.0,43,0.00,CLR,,0.00,WeatherDisplay:10.37,2013-02-11 01:34:00,
2013-02-10 20:39:00,44.9,24.8,30.26,ENE,68,0.0,1.0,45,0.00,CLR,,0.00,WeatherDisplay:10.37,2013-02-11 01:39:00,
2013-02-10 20:44:00,44.7,25.2,30.26,ENE,68,0.0,0.0,46,0.00,CLR,,0.00,WeatherDisplay:10.37,2013-02-11 01:44:00,
2013-02-10 20:49:00,44.3,27.3,30.26,ENE,68,0.0,1.0,51,0.00,CLR,,0.00,WeatherDisplay:10.37,2013-02-11 01:49:00,
2013-02-10 20:54:00,43.2,29.4,30.26,ENE,68,0.0,1.0,58,0.00,CLR,,0.00,WeatherDisplay:10.37,2013-02-11 01:54:00,
2013-02-10 20:59:00,42.0,30.3,30.26,ENE,68,1.0,2.0,63,0.01,RA,,0.01,WeatherDisplay:10.37,2013-02-11 01:59:00,
2013-02-10 21:04:00,41.0,31.2,30.26,NE,56,1.0,2.0,68,0.03,RA,,0.03,WeatherDisplay:10.37,2013-02-11 02:04:00,
2013-02-10 21:12:00,39.8,32.8,30.25,NE,38,2.0,2.3,76,0.05,RA,,0.05,WeatherDisplay:10.37,2013-02-11 02:12:00,
2013-02-10 21:18:00,39.2,32.6,30.25,ENE,78,0.3,5.8,77,0.07,-RA,,0.07,WeatherDisplay:10.37,2013-02-11 02:18:00,
2013-02-10 21:22:00,38.9,33.6,30.25,NE,53,0.8,1.1,81,0.09,-RA,,0.09,WeatherDisplay:10.37,2013-02-11 02:22:00,
2013-02-10 21:27:00,38.6,33.9,30.25,ENE,75,0.0,1.1,83,0.10,-RA,,0.10,WeatherDisplay:10.37,2013-02-11 02:27:00,
2013-02-10 21:33:00,38.4,34.6,30.25,ENE,75,0.0,1.1,86,0.11,-RA,,0.11,WeatherDisplay:10.37,2013-02-11 02:33:00,
2013-02-10 21:38:00,38.1,35.1,30.25,NE,44,0.3,1.0,89,0.11,-RA,,0.12,WeatherDisplay:10.37,2013-02-11 02:38:00,
2013-02-10 21:43:00,37.9,35.2,30.25,NE,38,0.1,1.1,90,0.12,-RA,,0.12,WeatherDisplay:10.37,2013-02-11 02:43:00,
2013-02-10 21:48:00,37.8,35.1,30.25,NNE,27,0.0,0.0,90,0.13,-RA,,0.13,WeatherDisplay:10.37,2013-02-11 02:48:00,
2013-02-10 21:53:00,37.7,35.3,30.24,NE,35,0.0,1.1,91,0.13,-RA,,0.13,WeatherDisplay:10.37,2013-02-11 02:53:00,
2013-02-10 21:59:00,37.7,35.3,30.23,NE,36,0.0,0.0,91,0.13,-RA,,0.14,WeatherDisplay:10.37,2013-02-11 02:59:00,
2013-02-10 22:04:00,37.8,35.4,30.23,NE,34,0.0,0.0,91,0.12,-RA,,0.14,WeatherDisplay:10.37,2013-02-11 03:04:00,
2013-02-10 22:09:00,37.7,35.3,30.22,NE,34,0.0,0.0,91,0.11,-RA,,0.14,WeatherDisplay:10.37,2013-02-11 03:09:00,
2013-02-10 22:14:00,37.7,35.6,30.22,NE,34,0.0,0.0,92,0.08,-RA,,0.14,WeatherDisplay:10.37,2013-02-11 03:14:00,
2013-02-10 22:19:00,37.7,35.9,30.23,NW,315,0.0,1.1,93,0.07,-RA,,0.14,WeatherDisplay:10.37,2013-02-11 03:19:00,
2013-02-10 22:24:00,37.8,36.0,30.23,West,278,0.1,1.0,93,0.05,-RA,,0.14,WeatherDisplay:10.37,2013-02-11 03:24:00,
2013-02-10 22:29:00,37.7,35.9,30.23,NW,311,0.0,1.1,93,0.04,-RA,,0.14,WeatherDisplay:10.37,2013-02-11 03:29:00,
2013-02-10 22:34:00,37.6,35.8,30.23,ENE,60,0.0,0.0,93,0.03,-RA,,0.14,WeatherDisplay:10.37,2013-02-11 03:34:00,
2013-02-10 22:39:00,37.7,35.9,30.23,West,262,0.6,1.0,93,0.02,-RA,,0.14,WeatherDisplay:10.37,2013-02-11 03:39:00,
2013-02-10 22:44:00,37.7,35.9,30.22,West,261,0.0,0.0,93,0.02,-RA,,0.14,WeatherDisplay:10.37,2013-02-11 03:44:00,
2013-02-10 22:49:00,37.7,35.9,30.22,West,262,0.0,0.0,93,0.01,-RA,,0.14,WeatherDisplay:10.37,2013-02-11 03:49:00,
2013-02-10 22:54:00,37.7,35.9,30.22,NNW,327,0.1,1.1,93,0.00,-RA,,0.14,WeatherDisplay:10.37,2013-02-11 03:54:00,
2013-02-10 22:59:00,37.6,35.5,30.21,NNW,344,0.0,0.0,92,0.00,-RA,,0.14,WeatherDisplay:10.37,2013-02-11 03:59:00,
2013-02-10 23:04:00,37.7,35.6,30.21,North,351,0.2,1.1,92,0.00,OVC,,0.14,WeatherDisplay:10.37,2013-02-11 04:04:00,
2013-02-10 23:09:00,37.7,35.6,30.21,North,352,0.0,0.0,92,0.00,OVC,,0.14,WeatherDisplay:10.37,2013-02-11 04:09:00,
2013-02-10 23:14:00,37.7,35.9,30.20,North,352,0.0,0.0,93,0.00,OVC,,0.14,WeatherDisplay:10.37,2013-02-11 04:14:00,
2013-02-10 23:19:00,37.7,35.6,30.20,NE,43,0.0,0.0,92,0.00,OVC,,0.14,WeatherDisplay:10.37,2013-02-11 04:19:00,
2013-02-10 23:24:00,37.8,35.7,30.20,NE,43,0.0,0.0,92,0.00,OVC,,0.14,WeatherDisplay:10.37,2013-02-11 04:24:00,
2013-02-10 23:29:00,37.9,35.8,30.20,NE,43,0.1,1.1,92,0.00,OVC,,0.14,WeatherDisplay:10.37,2013-02-11 04:29:00,
2013-02-10 23:34:00,37.9,35.8,30.20,NE,43,0.0,0.0,92,0.00,OVC,,0.14,WeatherDisplay:10.37,2013-02-11 04:34:00,
2013-02-10 23:39:00,38.0,35.9,30.20,NE,43,0.0,1.0,92,0.00,OVC,,0.14,WeatherDisplay:10.37,2013-02-11 04:39:00,
2013-02-10 23:44:00,37.9,35.8,30.19,NE,43,0.0,0.0,92,0.00,OVC,,0.14,WeatherDisplay:10.37,2013-02-11 04:44:00,
2013-02-10 23:49:00,38.0,36.2,30.19,NE,43,0.0,0.0,93,0.00,OVC,,0.14,WeatherDisplay:10.37,2013-02-11 04:49:00,
2013-02-10 23:54:00,38.0,36.2,30.19,NE,43,0.0,0.0,93,0.00,OVC,,0.14,WeatherDisplay:10.37,2013-02-11 04:54:00,
2013-02-10 23:59:00,37.9,36.1,30.18,NNE,20,0.9,3.5,93,0.00,OVC,,0.14,WeatherDisplay:10.37,2013-02-11 04:59:00,